Time;durP1;ratioP1;P1;durP2;ratioP2;P2;SDS_P1;SDS_P2;PMS_P1;PMS_P2;Temp;Humidity;BMP_temperature;BMP_pressure;BME280_temperature;BME280_humidity;BME280_pressure;Samples;Min_cycle;Max_cycle;Signal;HPM_P1;HPM_P2
2022/12/01 00:01:44;;;;;;;31.52;22.80;;;;;;;;;;9992074;28;20049;-66
2022/12/01 00:06:38;;;;;;;29.33;22.08;;;;;;;;;;9991777;28;20130;-67
2022/12/01 00:11:33;;;;;;;30.25;23.40;;;;;;;;;;9991973;28;20449;-67
2022/12/01 00:16:27;;;;;;;30.77;22.00;;;;;;;;;;9992433;28;20061;-66
2022/12/01 00:21:22;;;;;;;31.55;23.05;;;;;;;;;;9991929;28;20054;-66
2022/12/01 00:26:17;;;;;;;31.75;21.88;;;;;;;;;;9991807;28;20405;-66
2022/12/01 00:31:12;;;;;;;28.80;21.63;;;;;;;;;;9991226;28;20062;-67
2022/12/01 00:36:07;;;;;;;29.88;22.58;;;;;;;;;;9991017;28;20471;-67
2022/12/01 00:41:01;;;;;;;29.25;20.98;;;;;;;;;;9990879;28;20136;-66
2022/12/01 00:45:55;;;;;;;29.35;21.17;;;;;;;;;;9990937;28;20055;-66
2022/12/01 00:50:54;;;;;;;32.40;23.98;;;;;;;;;;9988226;28;20050;-67
2022/12/01 00:55:48;;;;;;;25.70;21.33;;;;;;;;;;9988838;28;20477;-67
2022/12/01 01:00:42;;;;;;;29.40;22.38;;;;;;;;;;9989595;28;20053;-67
2022/12/01 01:05:40;;;;;;;28.23;19.73;;;;;;;;;;9989769;28;20073;-67
2022/12/01 01:10:36;;;;;;;31.52;22.85;;;;;;;;;;9989615;28;20054;-67
2022/12/01 01:15:30;;;;;;;30.13;21.75;;;;;;;;;;9989594;28;20058;-67
2022/12/01 01:20:24;;;;;;;28.08;21.38;;;;;;;;;;9989357;28;20497;-68
2022/12/01 01:25:17;;;;;;;30.55;21.00;;;;;;;;;;9989421;28;20428;-67
2022/12/01 01:30:12;;;;;;;28.33;21.55;;;;;;;;;;9989068;28;20671;-67
2022/12/01 01:35:07;;;;;;;26.38;20.65;;;;;;;;;;9989139;28;20066;-68
2022/12/01 01:40:02;;;;;;;25.88;20.40;;;;;;;;;;9988475;28;20060;-68
2022/12/01 01:44:57;;;;;;;27.75;21.77;;;;;;;;;;9988559;28;20445;-68
2022/12/01 01:49:50;;;;;;;31.05;20.83;;;;;;;;;;9988989;28;20043;-68
2022/12/01 01:54:47;;;;;;;26.63;19.42;;;;;;;;;;9988261;28;20046;-66
2022/12/01 01:59:48;;;;;;;26.10;19.02;;;;;;;;;;9988218;28;20069;-66
2022/12/01 02:04:45;;;;;;;29.88;21.70;;;;;;;;;;9968157;28;20505;-66
2022/12/01 02:09:38;;;;;;;31.05;21.00;;;;;;;;;;9988152;28;20110;-66
2022/12/01 02:14:50;;;;;;;29.75;20.20;;;;;;;;;;9988584;28;20513;-66
2022/12/01 02:20:01;;;;;;;28.67;20.70;;;;;;;;;;9988200;28;20072;-66
2022/12/01 02:25:06;;;;;;;27.67;20.38;;;;;;;;;;9988126;28;20540;-66
2022/12/01 02:30:22;;;;;;;28.45;21.30;;;;;;;;;;9988400;28;20137;-67
2022/12/01 02:35:28;;;;;;;28.95;21.35;;;;;;;;;;9985886;28;20053;-67
2022/12/01 02:40:25;;;;;;;33.63;22.52;;;;;;;;;;9987782;28;20137;-66
2022/12/01 02:45:58;;;;;;;34.33;21.60;;;;;;;;;;9993145;28;20129;-67
2022/12/01 02:50:52;;;;;;;31.15;22.75;;;;;;;;;;9899760;28;20567;-67
2022/12/01 02:55:57;;;;;;;28.70;21.58;;;;;;;;;;9957174;28;20565;-67
2022/12/01 03:01:10;;;;;;;27.80;20.45;;;;;;;;;;9991629;28;20051;-67
2022/12/01 03:06:33;;;;;;;31.50;21.13;;;;;;;;;;9993230;28;20062;-67
2022/12/01 03:11:56;;;;;;;30.38;21.40;;;;;;;;;;9994929;28;20047;-67
2022/12/01 03:16:52;;;;;;;31.00;20.50;;;;;;;;;;9978009;28;20602;-67
2022/12/01 03:21:57;;;;;;;27.23;22.55;;;;;;;;;;9991598;28;20050;-67
2022/12/01 03:26:55;;;;;;;28.63;21.80;;;;;;;;;;9993945;28;20069;-67
2022/12/01 03:31:53;;;;;;;28.45;21.92;;;;;;;;;;9976457;28;20113;-67
2022/12/01 03:36:55;;;;;;;28.27;21.45;;;;;;;;;;9993719;28;20129;-67
2022/12/01 03:42:16;;;;;;;26.20;19.95;;;;;;;;;;9976153;28;20046;-67
2022/12/01 03:47:12;;;;;;;29.75;21.17;;;;;;;;;;9950612;28;20050;-67
2022/12/01 03:52:04;;;;;;;30.35;21.75;;;;;;;;;;9992739;28;20066;-67
2022/12/01 03:57:03;;;;;;;27.13;20.48;;;;;;;;;;9992456;28;20074;-67
2022/12/01 04:01:58;;;;;;;26.73;20.40;;;;;;;;;;9973871;28;20050;-67
2022/12/01 04:06:51;;;;;;;28.75;20.10;;;;;;;;;;9992768;28;20164;-67
2022/12/01 04:16:57;;;;;;;31.35;22.35;;;;;;;;;;9991197;28;20490;-66
2022/12/01 04:21:51;;;;;;;31.05;22.77;;;;;;;;;;9991366;28;20086;-67
2022/12/01 04:26:45;;;;;;;33.28;22.63;;;;;;;;;;9991145;28;20054;-67
2022/12/01 04:31:39;;;;;;;30.23;21.65;;;;;;;;;;9991290;28;20113;-67
2022/12/01 04:36:34;;;;;;;34.08;22.73;;;;;;;;;;9991494;28;20502;-67
2022/12/01 04:41:27;;;;;;;28.95;20.92;;;;;;;;;;9990824;28;20536;-67
2022/12/01 04:46:21;;;;;;;36.55;23.73;;;;;;;;;;9990166;28;20090;-66
2022/12/01 04:51:15;;;;;;;34.22;21.73;;;;;;;;;;9990767;28;20050;-66
2022/12/01 04:56:09;;;;;;;28.58;21.02;;;;;;;;;;9990350;28;20057;-67
2022/12/01 05:01:12;;;;;;;33.10;22.88;;;;;;;;;;9989934;28;20485;-66
2022/12/01 05:06:07;;;;;;;29.30;21.20;;;;;;;;;;9989756;28;20051;-66
2022/12/01 05:11:02;;;;;;;31.45;22.23;;;;;;;;;;9971891;28;20556;-66
2022/12/01 05:16:05;;;;;;;30.27;20.95;;;;;;;;;;9989543;28;20129;-66
2022/12/01 05:20:59;;;;;;;27.77;20.58;;;;;;;;;;9990316;28;20556;-66
2022/12/01 05:25:52;;;;;;;28.75;20.88;;;;;;;;;;9989698;28;20494;-66
2022/12/01 05:30:46;;;;;;;33.83;21.05;;;;;;;;;;9988726;28;20061;-65
2022/12/01 05:35:40;;;;;;;37.15;21.42;;;;;;;;;;9989449;28;20051;-66
2022/12/01 05:40:35;;;;;;;29.88;19.50;;;;;;;;;;9989094;28;20421;-66
2022/12/01 05:45:29;;;;;;;30.92;22.95;;;;;;;;;;9988660;28;20416;-66
2022/12/01 05:50:23;;;;;;;30.42;21.80;;;;;;;;;;9988003;28;20125;-66
2022/12/01 05:55:20;;;;;;;29.25;21.80;;;;;;;;;;9985799;28;20085;-66
2022/12/01 06:00:16;;;;;;;32.90;23.33;;;;;;;;;;9986613;28;20494;-67
2022/12/01 06:05:10;;;;;;;36.45;24.13;;;;;;;;;;9985415;28;20441;-66
2022/12/01 06:10:07;;;;;;;31.25;22.77;;;;;;;;;;9986433;28;20046;-66
2022/12/01 06:15:01;;;;;;;32.00;23.95;;;;;;;;;;9986522;28;20112;-67
2022/12/01 06:19:55;;;;;;;36.83;21.67;;;;;;;;;;9986080;28;20053;-66
2022/12/01 06:24:48;;;;;;;31.55;23.50;;;;;;;;;;9985583;28;20074;-66
2022/12/01 06:29:42;;;;;;;33.67;24.33;;;;;;;;;;9985769;28;20074;-67
2022/12/01 06:34:36;;;;;;;34.20;24.15;;;;;;;;;;9985394;28;20049;-66
2022/12/01 06:39:30;;;;;;;31.77;23.23;;;;;;;;;;9962736;28;20046;-66
2022/12/01 06:44:24;;;;;;;34.67;22.20;;;;;;;;;;9981543;28;20046;-67
2022/12/01 06:49:18;;;;;;;35.38;23.13;;;;;;;;;;9986158;28;20050;-67
2022/12/01 06:54:13;;;;;;;35.42;23.15;;;;;;;;;;9985929;28;20078;-67
2022/12/01 06:59:07;;;;;;;36.55;27.13;;;;;;;;;;9986408;28;20493;-67
2022/12/01 07:04:01;;;;;;;38.80;26.05;;;;;;;;;;9985878;28;20057;-66
2022/12/01 07:08:55;;;;;;;36.20;25.67;;;;;;;;;;9985602;28;20070;-67
2022/12/01 07:13:53;;;;;;;37.75;24.63;;;;;;;;;;9986531;28;20058;-67
2022/12/01 07:18:47;;;;;;;35.00;24.67;;;;;;;;;;9985339;28;20497;-67
2022/12/01 07:23:40;;;;;;;32.83;23.17;;;;;;;;;;9985380;28;20506;-67
2022/12/01 07:28:35;;;;;;;31.10;23.90;;;;;;;;;;9987658;28;20449;-67
2022/12/01 07:33:27;;;;;;;32.05;24.20;;;;;;;;;;9992545;28;20062;-67
2022/12/01 07:38:21;;;;;;;38.55;23.40;;;;;;;;;;9988375;28;20130;-67
2022/12/01 07:43:15;;;;;;;32.92;24.20;;;;;;;;;;9988198;28;20077;-67
2022/12/01 07:48:09;;;;;;;36.65;25.20;;;;;;;;;;9990617;28;20541;-67
2022/12/01 07:53:03;;;;;;;35.15;24.00;;;;;;;;;;9989188;28;20054;-67
2022/12/01 07:57:59;;;;;;;33.38;24.27;;;;;;;;;;9992183;28;20056;-67
2022/12/01 08:02:53;;;;;;;37.35;25.30;;;;;;;;;;9991069;28;20509;-66
2022/12/01 08:07:46;;;;;;;32.70;24.25;;;;;;;;;;9990592;28;20556;-69
2022/12/01 08:12:40;;;;;;;36.22;23.25;;;;;;;;;;9990463;28;20074;-69
2022/12/01 08:17:34;;;;;;;41.20;24.83;;;;;;;;;;9991344;28;20089;-67
2022/12/01 08:22:28;;;;;;;38.88;25.48;;;;;;;;;;9988631;28;20043;-67
2022/12/01 08:27:22;;;;;;;35.03;24.98;;;;;;;;;;9989542;28;20481;-66
2022/12/01 08:32:17;;;;;;;36.13;24.02;;;;;;;;;;9990677;28;20058;-67
2022/12/01 08:37:10;;;;;;;35.40;23.27;;;;;;;;;;9989455;28;20054;-66
2022/12/01 08:42:05;;;;;;;35.08;26.15;;;;;;;;;;9987142;28;20054;-67
2022/12/01 08:46:58;;;;;;;31.02;24.50;;;;;;;;;;9989066;28;20050;-67
2022/12/01 08:51:52;;;;;;;36.15;25.48;;;;;;;;;;9988252;28;20054;-67
2022/12/01 08:56:46;;;;;;;33.45;22.35;;;;;;;;;;9988563;28;20457;-67
2022/12/01 09:01:52;;;;;;;36.20;24.80;;;;;;;;;;9987241;28;20042;-66
2022/12/01 09:06:46;;;;;;;36.42;24.48;;;;;;;;;;9988305;28;20506;-67
2022/12/01 09:11:40;;;;;;;32.67;22.35;;;;;;;;;;9988674;28;20133;-67
2022/12/01 09:16:33;;;;;;;31.00;23.38;;;;;;;;;;9987223;28;20061;-67
2022/12/01 09:21:31;;;;;;;31.55;24.42;;;;;;;;;;9986764;28;20078;-66
2022/12/01 09:26:24;;;;;;;33.70;22.33;;;;;;;;;;9987322;28;20074;-66
2022/12/01 09:31:19;;;;;;;33.85;24.63;;;;;;;;;;9988632;28;20050;-67
2022/12/01 09:36:13;;;;;;;36.00;25.70;;;;;;;;;;9986891;28;20158;-66
2022/12/01 09:41:30;;;;;;;32.08;22.45;;;;;;;;;;9987904;28;20046;-66
2022/12/01 09:46:36;;;;;;;31.00;23.67;;;;;;;;;;9988237;28;20054;-66
2022/12/01 09:51:33;;;;;;;34.25;23.75;;;;;;;;;;9968408;28;20445;-67
2022/12/01 09:56:39;;;;;;;34.40;24.83;;;;;;;;;;9985701;28;20050;-67
2022/12/01 10:01:37;;;;;;;32.55;23.67;;;;;;;;;;9985934;28;20452;-66
2022/12/01 10:06:39;;;;;;;31.60;22.60;;;;;;;;;;9987299;28;20077;-67
2022/12/01 10:11:41;;;;;;;32.35;23.80;;;;;;;;;;9970007;28;20073;-66
2022/12/01 10:17:03;;;;;;;34.08;22.92;;;;;;;;;;9969810;28;20116;-67
2022/12/01 10:22:04;;;;;;;33.33;23.23;;;;;;;;;;9950765;28;20149;-67
2022/12/01 10:27:12;;;;;;;33.38;23.50;;;;;;;;;;9985210;28;20133;-67
2022/12/01 10:32:11;;;;;;;29.98;23.65;;;;;;;;;;9987326;28;20777;-67
2022/12/01 10:37:04;;;;;;;28.75;21.50;;;;;;;;;;9986443;28;20057;-67
2022/12/01 10:42:05;;;;;;;30.17;21.33;;;;;;;;;;9986936;28;20054;-66
2022/12/01 10:46:59;;;;;;;35.60;25.80;;;;;;;;;;9970133;28;20050;-67
2022/12/01 10:51:57;;;;;;;35.50;24.05;;;;;;;;;;9986351;28;20137;-67
2022/12/01 10:56:55;;;;;;;33.80;23.42;;;;;;;;;;9980150;28;20459;-68
2022/12/01 11:01:53;;;;;;;32.17;23.83;;;;;;;;;;9965734;28;20058;-68
2022/12/01 11:06:50;;;;;;;30.40;23.88;;;;;;;;;;9984050;28;20121;-67
2022/12/01 11:11:42;;;;;;;29.63;24.00;;;;;;;;;;9986650;28;20050;-67
2022/12/01 11:16:44;;;;;;;27.67;23.17;;;;;;;;;;9992316;28;20085;-67
2022/12/01 11:21:51;;;;;;;33.30;25.83;;;;;;;;;;9991511;28;20053;-67
2022/12/01 11:26:46;;;;;;;35.33;25.38;;;;;;;;;;9991013;28;20120;-68
2022/12/01 11:31:45;;;;;;;30.20;23.23;;;;;;;;;;9995170;28;20065;-68
2022/12/01 11:36:44;;;;;;;30.95;23.77;;;;;;;;;;9989051;28;20057;-68
2022/12/01 11:41:41;;;;;;;32.45;23.77;;;;;;;;;;9985773;28;20082;-69
2022/12/01 11:46:37;;;;;;;32.85;26.88;;;;;;;;;;9972060;28;20050;-68
2022/12/01 11:51:42;;;;;;;31.60;24.73;;;;;;;;;;9975620;28;20054;-67
2022/12/01 11:56:36;;;;;;;34.22;26.98;;;;;;;;;;9991317;28;20482;-68
2022/12/01 12:01:57;;;;;;;39.30;27.52;;;;;;;;;;9990968;28;20047;-68
2022/12/01 12:07:03;;;;;;;37.20;27.83;;;;;;;;;;9991519;28;20128;-67
2022/12/01 12:12:22;;;;;;;37.70;28.80;;;;;;;;;;9972976;28;20405;-68
2022/12/01 12:17:28;;;;;;;38.25;26.98;;;;;;;;;;9987711;28;20046;-68
2022/12/01 12:22:30;;;;;;;32.15;26.20;;;;;;;;;;9988024;28;20057;-68
2022/12/01 12:27:32;;;;;;;39.65;29.70;;;;;;;;;;9986974;28;20058;-68
2022/12/01 12:33:03;;;;;;;37.58;26.13;;;;;;;;;;9989173;28;20077;-67
2022/12/01 12:37:58;;;;;;;31.42;25.23;;;;;;;;;;9988420;28;20077;-69
2022/12/01 12:43:04;;;;;;;34.60;27.00;;;;;;;;;;9989185;28;20043;-68
2022/12/01 12:48:16;;;;;;;37.08;25.45;;;;;;;;;;9987039;28;20054;-68
2022/12/01 12:53:36;;;;;;;34.55;25.60;;;;;;;;;;9989628;28;20046;-68
2022/12/01 12:58:41;;;;;;;40.08;26.25;;;;;;;;;;9977850;28;20056;-67
2022/12/01 13:03:41;;;;;;;33.58;26.50;;;;;;;;;;9981850;28;20042;-68
2022/12/01 13:09:00;;;;;;;35.15;25.48;;;;;;;;;;9970336;28;20145;-68
2022/12/01 13:14:01;;;;;;;31.33;24.88;;;;;;;;;;9972015;28;20413;-68
2022/12/01 13:19:04;;;;;;;41.38;24.92;;;;;;;;;;9964022;28;20047;-68
2022/12/01 13:23:58;;;;;;;37.10;26.33;;;;;;;;;;9984152;28;20089;-68
2022/12/01 13:28:56;;;;;;;30.80;25.73;;;;;;;;;;9988954;28;20054;-68
2022/12/01 13:34:00;;;;;;;38.28;26.60;;;;;;;;;;9989201;28;20054;-68
2022/12/01 13:38:57;;;;;;;32.83;25.30;;;;;;;;;;9971556;28;20517;-68
2022/12/01 13:43:52;;;;;;;35.47;26.15;;;;;;;;;;9987859;28;20162;-68
2022/12/01 13:48:45;;;;;;;35.05;27.90;;;;;;;;;;9968655;28;20486;-68
2022/12/01 13:53:38;;;;;;;35.95;25.45;;;;;;;;;;9988218;28;20152;-68
2022/12/01 13:58:31;;;;;;;47.08;26.05;;;;;;;;;;9986273;28;20107;-68
2022/12/01 14:03:27;;;;;;;34.17;27.45;;;;;;;;;;9987662;28;20100;-68
2022/12/01 14:08:29;;;;;;;33.50;26.73;;;;;;;;;;9987545;28;20054;-68
2022/12/01 14:13:23;;;;;;;37.30;27.35;;;;;;;;;;9987202;28;20062;-68
2022/12/01 14:18:35;;;;;;;32.67;24.52;;;;;;;;;;9979897;28;20466;-68
2022/12/01 14:23:57;;;;;;;38.65;26.17;;;;;;;;;;9987530;28;20046;-67
2022/12/01 14:28:59;;;;;;;42.72;28.52;;;;;;;;;;9987328;28;20053;-67
2022/12/01 14:34:18;;;;;;;33.92;26.52;;;;;;;;;;9987488;28;20108;-68
2022/12/01 14:39:26;;;;;;;29.42;23.95;;;;;;;;;;9990735;28;20054;-67
2022/12/01 14:44:37;;;;;;;31.50;25.63;;;;;;;;;;9977857;28;20061;-68
2022/12/01 14:49:38;;;;;;;36.78;24.77;;;;;;;;;;9995689;28;20105;-67
2022/12/01 14:54:41;;;;;;;33.65;24.40;;;;;;;;;;9991807;28;20053;-67
2022/12/01 14:59:36;;;;;;;41.72;25.92;;;;;;;;;;9974498;28;20061;-67
2022/12/01 15:04:30;;;;;;;38.10;24.50;;;;;;;;;;9994435;28;20117;-67
2022/12/01 15:09:23;;;;;;;34.55;24.10;;;;;;;;;;9975719;28;20544;-67
2022/12/01 15:14:47;;;;;;;31.83;23.55;;;;;;;;;;9977087;28;20104;-67
2022/12/01 15:19:42;;;;;;;29.73;23.35;;;;;;;;;;9992152;28;20498;-69
2022/12/01 15:24:36;;;;;;;35.80;24.80;;;;;;;;;;9992768;28;20137;-69
2022/12/01 15:29:45;;;;;;;39.80;25.02;;;;;;;;;;9973184;28;20105;-67
2022/12/01 15:34:55;;;;;;;34.58;25.10;;;;;;;;;;9976058;28;20073;-66
2022/12/01 15:40:08;;;;;;;39.58;28.05;;;;;;;;;;9992510;28;20044;-66
2022/12/01 15:45:21;;;;;;;38.67;28.02;;;;;;;;;;9991222;28;20050;-69
2022/12/01 15:50:39;;;;;;;44.78;27.10;;;;;;;;;;9991076;28;20089;-69
2022/12/01 15:55:37;;;;;;;36.90;24.98;;;;;;;;;;9989834;28;20108;-68
2022/12/01 16:00:31;;;;;;;39.15;28.10;;;;;;;;;;9971455;28;20054;-69
2022/12/01 16:05:32;;;;;;;34.67;24.88;;;;;;;;;;9989370;28;20066;-67
2022/12/01 16:10:36;;;;;;;34.88;26.33;;;;;;;;;;9991339;28;20105;-69
2022/12/01 16:15:30;;;;;;;36.25;25.38;;;;;;;;;;9991437;28;20046;-67
2022/12/01 16:20:34;;;;;;;37.17;26.85;;;;;;;;;;9990677;28;20103;-66
2022/12/01 16:25:27;;;;;;;31.15;23.80;;;;;;;;;;9972763;28;20054;-66
2022/12/01 16:30:25;;;;;;;28.33;22.33;;;;;;;;;;9987565;28;20059;-66
2022/12/01 16:35:24;;;;;;;32.65;26.63;;;;;;;;;;9987027;28;20054;-66
2022/12/01 16:40:18;;;;;;;42.28;25.55;;;;;;;;;;9985561;28;20502;-66
2022/12/01 16:45:13;;;;;;;37.10;26.50;;;;;;;;;;9986615;28;20477;-66
2022/12/01 16:50:12;;;;;;;35.83;27.13;;;;;;;;;;9983250;28;20084;-66
2022/12/01 16:55:26;;;;;;;42.67;30.20;;;;;;;;;;9988260;28;20043;-66
2022/12/01 17:00:22;;;;;;;40.30;26.33;;;;;;;;;;9979506;28;20078;-66
2022/12/01 17:05:17;;;;;;;53.42;34.53;;;;;;;;;;9984736;28;20421;-66
2022/12/01 17:10:11;;;;;;;47.05;32.88;;;;;;;;;;9988051;28;20054;-66
2022/12/01 17:15:05;;;;;;;47.85;32.13;;;;;;;;;;9987079;28;20493;-66
2022/12/01 17:19:59;;;;;;;43.50;30.30;;;;;;;;;;9986951;28;20415;-64
2022/12/01 17:25:03;;;;;;;43.20;31.00;;;;;;;;;;10125896;28;20980;-67
2022/12/01 17:29:58;;;;;;;48.13;30.85;;;;;;;;;;10112783;28;20542;-66
2022/12/01 17:34:52;;;;;;;43.55;31.85;;;;;;;;;;10109264;28;20045;-66
2022/12/01 17:39:46;;;;;;;52.60;37.65;;;;;;;;;;10115663;28;20045;-66
2022/12/01 17:44:39;;;;;;;60.28;40.53;;;;;;;;;;10109870;28;20098;-66
2022/12/01 17:49:35;;;;;;;74.80;50.78;;;;;;;;;;10108819;28;20049;-67
2022/12/01 17:54:29;;;;;;;55.75;39.70;;;;;;;;;;10113257;28;20496;-66
2022/12/01 17:59:23;;;;;;;44.65;32.47;;;;;;;;;;10116481;28;20056;-66
2022/12/01 18:04:17;;;;;;;46.95;33.67;;;;;;;;;;10111924;28;20245;-66
2022/12/01 18:09:11;;;;;;;42.72;32.42;;;;;;;;;;10103385;28;20041;-67
2022/12/01 18:14:05;;;;;;;44.72;34.83;;;;;;;;;;10117069;28;20404;-66
2022/12/01 18:19:01;;;;;;;47.35;33.72;;;;;;;;;;10119277;28;20463;-66
2022/12/01 18:23:57;;;;;;;54.20;39.97;;;;;;;;;;10106142;28;20381;-65
2022/12/01 18:28:59;;;;;;;46.10;34.33;;;;;;;;;;10104124;28;20037;-65
2022/12/01 18:33:56;;;;;;;51.47;35.97;;;;;;;;;;10087592;28;20133;-65
2022/12/01 18:38:50;;;;;;;53.50;33.80;;;;;;;;;;10071672;28;20049;-66
2022/12/01 18:43:45;;;;;;;51.85;37.22;;;;;;;;;;10075448;28;20128;-66
2022/12/01 18:48:42;;;;;;;47.88;33.92;;;;;;;;;;10070659;28;20054;-66
2022/12/01 18:53:36;;;;;;;51.15;34.17;;;;;;;;;;10071525;28;20426;-66
2022/12/01 18:58:31;;;;;;;45.53;32.00;;;;;;;;;;10071206;28;20403;-66
2022/12/01 19:03:24;;;;;;;45.88;31.67;;;;;;;;;;10069146;28;20195;-65
2022/12/01 19:08:18;;;;;;;51.58;37.65;;;;;;;;;;10067244;28;20128;-65
2022/12/01 19:13:12;;;;;;;97.68;63.20;;;;;;;;;;10067160;28;20466;-65
2022/12/01 19:18:06;;;;;;;65.05;48.10;;;;;;;;;;10068516;28;20053;-65
2022/12/01 19:23:01;;;;;;;49.05;34.63;;;;;;;;;;10068301;28;20057;-65
2022/12/01 19:27:55;;;;;;;48.80;37.35;;;;;;;;;;10068202;28;20132;-64
2022/12/01 19:32:48;;;;;;;50.92;35.35;;;;;;;;;;10068685;28;20053;-65
2022/12/01 19:37:42;;;;;;;54.10;35.00;;;;;;;;;;10068317;28;20159;-65
2022/12/01 19:42:36;;;;;;;56.25;36.65;;;;;;;;;;10069938;28;20060;-66
2022/12/01 19:47:31;;;;;;;45.42;36.00;;;;;;;;;;10066252;28;20053;-71
2022/12/01 19:52:25;;;;;;;51.40;36.92;;;;;;;;;;10081946;28;20048;-67
2022/12/01 19:57:19;;;;;;;55.05;37.55;;;;;;;;;;10074261;28;20393;-69
2022/12/01 20:02:13;;;;;;;99.70;70.15;;;;;;;;;;10070053;28;20064;-70
2022/12/01 20:07:06;;;;;;;88.88;60.83;;;;;;;;;;10064616;28;20124;-67
2022/12/01 20:12:00;;;;;;;70.90;46.55;;;;;;;;;;10065176;28;20107;-68
2022/12/01 20:16:54;;;;;;;53.33;39.17;;;;;;;;;;10065391;28;20052;-67
2022/12/01 20:21:48;;;;;;;45.83;34.08;;;;;;;;;;10069674;28;20057;-68
2022/12/01 20:26:48;;;;;;;45.67;31.90;;;;;;;;;;10070898;28;20052;-67
2022/12/01 20:31:42;;;;;;;45.45;34.40;;;;;;;;;;10072441;28;20120;-64
2022/12/01 20:36:38;;;;;;;50.72;39.03;;;;;;;;;;10076456;28;20053;-64
2022/12/01 20:41:33;;;;;;;46.80;35.03;;;;;;;;;;10072292;28;20060;-64
2022/12/01 20:46:26;;;;;;;60.80;37.85;;;;;;;;;;10071730;28;20051;-63
2022/12/01 20:51:20;;;;;;;50.97;36.47;;;;;;;;;;10073775;28;20412;-64
2022/12/01 20:56:14;;;;;;;53.85;40.15;;;;;;;;;;10084607;28;20515;-64
2022/12/01 21:01:10;;;;;;;53.47;37.00;;;;;;;;;;10077389;28;20053;-63
2022/12/01 21:06:05;;;;;;;54.45;39.90;;;;;;;;;;10082971;28;20408;-63
2022/12/01 21:11:05;;;;;;;57.80;40.22;;;;;;;;;;10063938;28;20057;-63
2022/12/01 21:15:59;;;;;;;54.08;40.20;;;;;;;;;;10067428;28;20087;-62
2022/12/01 21:21:09;;;;;;;49.60;36.22;;;;;;;;;;10070790;28;20144;-63
2022/12/01 21:26:08;;;;;;;52.55;36.45;;;;;;;;;;10067438;28;20049;-63
2022/12/01 21:31:14;;;;;;;52.22;36.90;;;;;;;;;;10065784;28;20484;-64
2022/12/01 21:36:18;;;;;;;54.72;39.17;;;;;;;;;;10064693;28;20053;-64
2022/12/01 21:41:17;;;;;;;58.28;37.45;;;;;;;;;;10072116;28;20057;-64
2022/12/01 21:46:14;;;;;;;50.05;38.58;;;;;;;;;;10081312;28;20110;-63
2022/12/01 21:51:32;;;;;;;60.50;40.58;;;;;;;;;;10071826;28;20480;-64
2022/12/01 21:56:27;;;;;;;67.63;50.88;;;;;;;;;;10078346;28;20045;-64
2022/12/01 22:01:31;;;;;;;62.05;41.10;;;;;;;;;;10073736;28;20045;-64
2022/12/01 22:06:25;;;;;;;51.33;36.65;;;;;;;;;;10083631;28;20512;-64
2022/12/01 22:11:42;;;;;;;66.05;41.28;;;;;;;;;;10085955;28;20045;-64
2022/12/01 22:16:39;;;;;;;73.95;49.97;;;;;;;;;;10081944;28;20053;-64
2022/12/01 22:21:49;;;;;;;62.25;42.15;;;;;;;;;;10080933;28;20481;-64
2022/12/01 22:26:46;;;;;;;61.65;46.40;;;;;;;;;;10082731;28;20065;-63
2022/12/01 22:31:42;;;;;;;59.65;43.92;;;;;;;;;;10090408;28;20053;-63
2022/12/01 22:36:38;;;;;;;49.78;34.05;;;;;;;;;;10081663;28;20061;-63
2022/12/01 22:41:32;;;;;;;61.85;44.67;;;;;;;;;;10080297;28;20092;-63
2022/12/01 22:46:30;;;;;;;57.95;39.83;;;;;;;;;;10071884;28;20128;-63
2022/12/01 22:51:41;;;;;;;59.00;40.23;;;;;;;;;;10074026;28;20049;-63
2022/12/01 22:56:40;;;;;;;50.03;34.90;;;;;;;;;;10076326;28;20443;-63
2022/12/01 23:01:45;;;;;;;46.75;33.25;;;;;;;;;;10080600;28;20068;-63
2022/12/01 23:07:01;;;;;;;55.30;34.42;;;;;;;;;;10086432;28;20162;-63
2022/12/01 23:12:24;;;;;;;46.05;34.47;;;;;;;;;;10075216;28;20429;-63
2022/12/01 23:17:26;;;;;;;48.22;36.00;;;;;;;;;;10077771;28;20045;-63
2022/12/01 23:22:20;;;;;;;54.80;36.25;;;;;;;;;;10081950;28;20548;-64
2022/12/01 23:27:15;;;;;;;60.30;40.42;;;;;;;;;;10087097;28;20048;-63
2022/12/01 23:32:10;;;;;;;53.67;37.20;;;;;;;;;;10077946;28;20459;-63
2022/12/01 23:37:10;;;;;;;56.20;39.88;;;;;;;;;;10080524;28;20500;-63
2022/12/01 23:42:05;;;;;;;57.03;39.45;;;;;;;;;;10089687;28;20447;-63
2022/12/01 23:47:00;;;;;;;56.95;38.90;;;;;;;;;;10082177;28;20106;-63
2022/12/01 23:51:54;;;;;;;52.25;38.30;;;;;;;;;;10082027;28;20137;-63
2022/12/01 23:56:51;;;;;;;56.13;40.80;;;;;;;;;;10077216;28;20140;-63
